<?xml version="1.0" encoding="UTF-8" standalone="no" ?>
<gpx xmlns="http://www.topografix.com/GPX/1/1" xmlns:xsi="http://www.w3.org/2001/XMLSchema-instance" xsi:schemaLocation="http://www.topografix.com/GPX/1/1 http://www.topografix.com/GPX/1/1/gpx.xsd" version="1.1" creator="VisuGPX - https://www.visugpx.com">
  <metadata>
    <name>12582698-Iseran normal</name>
  </metadata>
  <trk>
    <name><![CDATA[12582698-Iseran normal]]></name>
    <trkseg>
      <trkpt lat="45.13715" lon="4.73304">
        <ele>435</ele>
        <time>2021-02-22T17:26:24Z</time>
      </trkpt>
      <trkpt lat="45.13699" lon="4.73244">
        <ele>436</ele>
        <time>2021-02-22T17:27:00Z</time>
      </trkpt>
      <trkpt lat="45.13665" lon="4.73274">
        <ele>439</ele>
        <time>2021-02-22T17:27:32Z</time>
      </trkpt>
      <trkpt lat="45.13594" lon="4.7306">
        <ele>442</ele>
        <time>2021-02-22T17:29:46Z</time>
      </trkpt>
      <trkpt lat="45.13554" lon="4.73052">
        <ele>444</ele>
        <time>2021-02-22T17:30:18Z</time>
      </trkpt>
      <trkpt lat="45.13432" lon="4.7323">
        <ele>455</ele>
        <time>2021-02-22T17:32:38Z</time>
      </trkpt>
      <trkpt lat="45.13396" lon="4.73384">
        <ele>457</ele>
        <time>2021-02-22T17:34:10Z</time>
      </trkpt>
      <trkpt lat="45.13521" lon="4.73489">
        <ele>450</ele>
        <time>2021-02-22T17:36:06Z</time>
      </trkpt>
      <trkpt lat="45.13477" lon="4.73591">
        <ele>448</ele>
        <time>2021-02-22T17:37:14Z</time>
      </trkpt>
      <trkpt lat="45.13407" lon="4.7368">
        <ele>445</ele>
        <time>2021-02-22T17:38:29Z</time>
      </trkpt>
      <trkpt lat="45.1331" lon="4.73781">
        <ele>447</ele>
        <time>2021-02-22T17:40:06Z</time>
      </trkpt>
      <trkpt lat="45.13225" lon="4.73874">
        <ele>444</ele>
        <time>2021-02-22T17:41:32Z</time>
      </trkpt>
      <trkpt lat="45.13255" lon="4.73982">
        <ele>439</ele>
        <time>2021-02-22T17:42:37Z</time>
      </trkpt>
      <trkpt lat="45.13267" lon="4.7405">
        <ele>435</ele>
        <time>2021-02-22T17:43:17Z</time>
      </trkpt>
      <trkpt lat="45.13285" lon="4.74098">
        <ele>432</ele>
        <time>2021-02-22T17:43:47Z</time>
      </trkpt>
      <trkpt lat="45.13274" lon="4.7412">
        <ele>429</ele>
        <time>2021-02-22T17:44:03Z</time>
      </trkpt>
      <trkpt lat="45.13286" lon="4.74161">
        <ele>425</ele>
        <time>2021-02-22T17:44:28Z</time>
      </trkpt>
      <trkpt lat="45.13251" lon="4.74165">
        <ele>421</ele>
        <time>2021-02-22T17:44:56Z</time>
      </trkpt>
      <trkpt lat="45.13301" lon="4.74268">
        <ele>414</ele>
        <time>2021-02-22T17:46:06Z</time>
      </trkpt>
      <trkpt lat="45.13212" lon="4.74241">
        <ele>414</ele>
        <time>2021-02-22T17:47:19Z</time>
      </trkpt>
      <trkpt lat="45.13233" lon="4.74277">
        <ele>413</ele>
        <time>2021-02-22T17:47:46Z</time>
      </trkpt>
      <trkpt lat="45.1324" lon="4.74336">
        <ele>415</ele>
        <time>2021-02-22T17:48:19Z</time>
      </trkpt>
      <trkpt lat="45.13188" lon="4.74465">
        <ele>425</ele>
        <time>2021-02-22T17:49:43Z</time>
      </trkpt>
      <trkpt lat="45.13113" lon="4.7446">
        <ele>430</ele>
        <time>2021-02-22T17:50:44Z</time>
      </trkpt>
      <trkpt lat="45.13032" lon="4.74443">
        <ele>434</ele>
        <time>2021-02-22T17:51:49Z</time>
      </trkpt>
      <trkpt lat="45.12952" lon="4.74412">
        <ele>439</ele>
        <time>2021-02-22T17:52:55Z</time>
      </trkpt>
      <trkpt lat="45.1286" lon="4.74345">
        <ele>444</ele>
        <time>2021-02-22T17:54:18Z</time>
      </trkpt>
      <trkpt lat="45.12819" lon="4.74323">
        <ele>446</ele>
        <time>2021-02-22T17:54:53Z</time>
      </trkpt>
      <trkpt lat="45.1281" lon="4.74414">
        <ele>444</ele>
        <time>2021-02-22T17:55:45Z</time>
      </trkpt>
      <trkpt lat="45.12801" lon="4.74456">
        <ele>444</ele>
        <time>2021-02-22T17:56:10Z</time>
      </trkpt>
      <trkpt lat="45.12817" lon="4.74526">
        <ele>442</ele>
        <time>2021-02-22T17:56:52Z</time>
      </trkpt>
      <trkpt lat="45.12807" lon="4.74563">
        <ele>443</ele>
        <time>2021-02-22T17:57:14Z</time>
      </trkpt>
      <trkpt lat="45.12758" lon="4.7453">
        <ele>447</ele>
        <time>2021-02-22T17:57:57Z</time>
      </trkpt>
      <trkpt lat="45.12729" lon="4.74542">
        <ele>449</ele>
        <time>2021-02-22T17:58:22Z</time>
      </trkpt>
      <trkpt lat="45.12672" lon="4.74637">
        <ele>452</ele>
        <time>2021-02-22T17:59:32Z</time>
      </trkpt>
      <trkpt lat="45.126" lon="4.74692">
        <ele>454</ele>
        <time>2021-02-22T18:00:38Z</time>
      </trkpt>
      <trkpt lat="45.12528" lon="4.74689">
        <ele>457</ele>
        <time>2021-02-22T18:01:35Z</time>
      </trkpt>
      <trkpt lat="45.1244" lon="4.74679">
        <ele>458</ele>
        <time>2021-02-22T18:02:46Z</time>
      </trkpt>
      <trkpt lat="45.12447" lon="4.74623">
        <ele>460</ele>
        <time>2021-02-22T18:03:18Z</time>
      </trkpt>
      <trkpt lat="45.12386" lon="4.74517">
        <ele>461</ele>
        <time>2021-02-22T18:04:35Z</time>
      </trkpt>
      <trkpt lat="45.12287" lon="4.74338">
        <ele>463</ele>
        <time>2021-02-22T18:06:44Z</time>
      </trkpt>
      <trkpt lat="45.12185" lon="4.74211">
        <ele>470</ele>
        <time>2021-02-22T18:08:33Z</time>
      </trkpt>
      <trkpt lat="45.12083" lon="4.74083">
        <ele>475</ele>
        <time>2021-02-22T18:10:22Z</time>
      </trkpt>
      <trkpt lat="45.11995" lon="4.73945">
        <ele>479</ele>
        <time>2021-02-22T18:12:07Z</time>
      </trkpt>
      <trkpt lat="45.11944" lon="4.73898">
        <ele>480</ele>
        <time>2021-02-22T18:12:55Z</time>
      </trkpt>
      <trkpt lat="45.11902" lon="4.74031">
        <ele>475</ele>
        <time>2021-02-22T18:14:18Z</time>
      </trkpt>
      <trkpt lat="45.11839" lon="4.74084">
        <ele>473</ele>
        <time>2021-02-22T18:15:16Z</time>
      </trkpt>
      <trkpt lat="45.11745" lon="4.74139">
        <ele>466</ele>
        <time>2021-02-22T18:16:38Z</time>
      </trkpt>
      <trkpt lat="45.11683" lon="4.74087">
        <ele>464</ele>
        <time>2021-02-22T18:17:36Z</time>
      </trkpt>
      <trkpt lat="45.11561" lon="4.74077">
        <ele>464</ele>
        <time>2021-02-22T18:19:13Z</time>
      </trkpt>
      <trkpt lat="45.11498" lon="4.74127">
        <ele>463</ele>
        <time>2021-02-22T18:20:11Z</time>
      </trkpt>
      <trkpt lat="45.11451" lon="4.74143">
        <ele>460</ele>
        <time>2021-02-22T18:20:50Z</time>
      </trkpt>
      <trkpt lat="45.11456" lon="4.74181">
        <ele>459</ele>
        <time>2021-02-22T18:21:12Z</time>
      </trkpt>
      <trkpt lat="45.11529" lon="4.74244">
        <ele>457</ele>
        <time>2021-02-22T18:22:20Z</time>
      </trkpt>
      <trkpt lat="45.11618" lon="4.74249">
        <ele>455</ele>
        <time>2021-02-22T18:23:32Z</time>
      </trkpt>
      <trkpt lat="45.11645" lon="4.74275">
        <ele>455</ele>
        <time>2021-02-22T18:23:58Z</time>
      </trkpt>
      <trkpt lat="45.11655" lon="4.74398">
        <ele>452</ele>
        <time>2021-02-22T18:25:08Z</time>
      </trkpt>
      <trkpt lat="45.11715" lon="4.74467">
        <ele>454</ele>
        <time>2021-02-22T18:26:09Z</time>
      </trkpt>
      <trkpt lat="45.11828" lon="4.74572">
        <ele>460</ele>
        <time>2021-02-22T18:27:58Z</time>
      </trkpt>
      <trkpt lat="45.11887" lon="4.74592">
        <ele>460</ele>
        <time>2021-02-22T18:28:46Z</time>
      </trkpt>
      <trkpt lat="45.12037" lon="4.74616">
        <ele>457</ele>
        <time>2021-02-22T18:30:47Z</time>
      </trkpt>
      <trkpt lat="45.12131" lon="4.74657">
        <ele>449</ele>
        <time>2021-02-22T18:32:06Z</time>
      </trkpt>
      <trkpt lat="45.12174" lon="4.74639">
        <ele>447</ele>
        <time>2021-02-22T18:32:42Z</time>
      </trkpt>
      <trkpt lat="45.12199" lon="4.74702">
        <ele>446</ele>
        <time>2021-02-22T18:33:23Z</time>
      </trkpt>
      <trkpt lat="45.12233" lon="4.74798">
        <ele>444</ele>
        <time>2021-02-22T18:34:23Z</time>
      </trkpt>
      <trkpt lat="45.1228" lon="4.74844">
        <ele>445</ele>
        <time>2021-02-22T18:35:09Z</time>
      </trkpt>
      <trkpt lat="45.12322" lon="4.74928">
        <ele>447</ele>
        <time>2021-02-22T18:36:07Z</time>
      </trkpt>
      <trkpt lat="45.12318" lon="4.74995">
        <ele>447</ele>
        <time>2021-02-22T18:36:45Z</time>
      </trkpt>
      <trkpt lat="45.12368" lon="4.75073">
        <ele>455</ele>
        <time>2021-02-22T18:37:45Z</time>
      </trkpt>
      <trkpt lat="45.12413" lon="4.75106">
        <ele>459</ele>
        <time>2021-02-22T18:38:25Z</time>
      </trkpt>
      <trkpt lat="45.12414" lon="4.75131">
        <ele>460</ele>
        <time>2021-02-22T18:38:39Z</time>
      </trkpt>
      <trkpt lat="45.12433" lon="4.75143">
        <ele>461</ele>
        <time>2021-02-22T18:38:56Z</time>
      </trkpt>
      <trkpt lat="45.12424" lon="4.75173">
        <ele>461</ele>
        <time>2021-02-22T18:39:14Z</time>
      </trkpt>
      <trkpt lat="45.12411" lon="4.75183">
        <ele>460</ele>
        <time>2021-02-22T18:39:26Z</time>
      </trkpt>
      <trkpt lat="45.12403" lon="4.7524">
        <ele>458</ele>
        <time>2021-02-22T18:39:59Z</time>
      </trkpt>
      <trkpt lat="45.12391" lon="4.75365">
        <ele>452</ele>
        <time>2021-02-22T18:41:10Z</time>
      </trkpt>
      <trkpt lat="45.1239" lon="4.75452">
        <ele>446</ele>
        <time>2021-02-22T18:42:00Z</time>
      </trkpt>
      <trkpt lat="45.12343" lon="4.75576">
        <ele>441</ele>
        <time>2021-02-22T18:43:19Z</time>
      </trkpt>
      <trkpt lat="45.12294" lon="4.75705">
        <ele>431</ele>
        <time>2021-02-22T18:44:42Z</time>
      </trkpt>
      <trkpt lat="45.12214" lon="4.75761">
        <ele>427</ele>
        <time>2021-02-22T18:45:53Z</time>
      </trkpt>
      <trkpt lat="45.12168" lon="4.75752">
        <ele>426</ele>
        <time>2021-02-22T18:46:30Z</time>
      </trkpt>
      <trkpt lat="45.12069" lon="4.75797">
        <ele>417</ele>
        <time>2021-02-22T18:47:54Z</time>
      </trkpt>
      <trkpt lat="45.11999" lon="4.75868">
        <ele>405</ele>
        <time>2021-02-22T18:49:03Z</time>
      </trkpt>
      <trkpt lat="45.11963" lon="4.75908">
        <ele>393</ele>
        <time>2021-02-22T18:49:39Z</time>
      </trkpt>
      <trkpt lat="45.11945" lon="4.75942">
        <ele>386</ele>
        <time>2021-02-22T18:50:03Z</time>
      </trkpt>
      <trkpt lat="45.11931" lon="4.75918">
        <ele>387</ele>
        <time>2021-02-22T18:50:21Z</time>
      </trkpt>
      <trkpt lat="45.11911" lon="4.7592">
        <ele>385</ele>
        <time>2021-02-22T18:50:37Z</time>
      </trkpt>
      <trkpt lat="45.11888" lon="4.7597">
        <ele>381</ele>
        <time>2021-02-22T18:51:11Z</time>
      </trkpt>
      <trkpt lat="45.11904" lon="4.76016">
        <ele>376</ele>
        <time>2021-02-22T18:51:40Z</time>
      </trkpt>
      <trkpt lat="45.1189" lon="4.76049">
        <ele>375</ele>
        <time>2021-02-22T18:52:01Z</time>
      </trkpt>
      <trkpt lat="45.11862" lon="4.76037">
        <ele>378</ele>
        <time>2021-02-22T18:52:25Z</time>
      </trkpt>
      <trkpt lat="45.11851" lon="4.75998">
        <ele>379</ele>
        <time>2021-02-22T18:52:49Z</time>
      </trkpt>
      <trkpt lat="45.11838" lon="4.75974">
        <ele>383</ele>
        <time>2021-02-22T18:53:06Z</time>
      </trkpt>
      <trkpt lat="45.11791" lon="4.7597">
        <ele>390</ele>
        <time>2021-02-22T18:53:43Z</time>
      </trkpt>
      <trkpt lat="45.11759" lon="4.7597">
        <ele>395</ele>
        <time>2021-02-22T18:54:09Z</time>
      </trkpt>
      <trkpt lat="45.11816" lon="4.75913">
        <ele>392</ele>
        <time>2021-02-22T18:55:05Z</time>
      </trkpt>
      <trkpt lat="45.11767" lon="4.75914">
        <ele>399</ele>
        <time>2021-02-22T18:55:44Z</time>
      </trkpt>
      <trkpt lat="45.11788" lon="4.75878">
        <ele>398</ele>
        <time>2021-02-22T18:56:10Z</time>
      </trkpt>
      <trkpt lat="45.11706" lon="4.75853">
        <ele>412</ele>
        <time>2021-02-22T18:57:18Z</time>
      </trkpt>
      <trkpt lat="45.11624" lon="4.75827">
        <ele>426</ele>
        <time>2021-02-22T18:58:25Z</time>
      </trkpt>
      <trkpt lat="45.11591" lon="4.75846">
        <ele>431</ele>
        <time>2021-02-22T18:58:53Z</time>
      </trkpt>
      <trkpt lat="45.11487" lon="4.75858">
        <ele>441</ele>
        <time>2021-02-22T19:00:17Z</time>
      </trkpt>
      <trkpt lat="45.11374" lon="4.75863">
        <ele>447</ele>
        <time>2021-02-22T19:01:47Z</time>
      </trkpt>
      <trkpt lat="45.11262" lon="4.75868">
        <ele>453</ele>
        <time>2021-02-22T19:03:17Z</time>
      </trkpt>
      <trkpt lat="45.11148" lon="4.75874">
        <ele>460</ele>
        <time>2021-02-22T19:04:49Z</time>
      </trkpt>
      <trkpt lat="45.11034" lon="4.75891">
        <ele>464</ele>
        <time>2021-02-22T19:06:20Z</time>
      </trkpt>
      <trkpt lat="45.1097" lon="4.75904">
        <ele>464</ele>
        <time>2021-02-22T19:07:12Z</time>
      </trkpt>
      <trkpt lat="45.11001" lon="4.75646">
        <ele>466</ele>
        <time>2021-02-22T19:09:40Z</time>
      </trkpt>
      <trkpt lat="45.10972" lon="4.75327">
        <ele>468</ele>
        <time>2021-02-22T19:12:42Z</time>
      </trkpt>
      <trkpt lat="45.10852" lon="4.75044">
        <ele>457</ele>
        <time>2021-02-22T19:15:48Z</time>
      </trkpt>
      <trkpt lat="45.10717" lon="4.74979">
        <ele>454</ele>
        <time>2021-02-22T19:17:42Z</time>
      </trkpt>
      <trkpt lat="45.10677" lon="4.74974">
        <ele>453</ele>
        <time>2021-02-22T19:18:15Z</time>
      </trkpt>
      <trkpt lat="45.10668" lon="4.75049">
        <ele>455</ele>
        <time>2021-02-22T19:18:58Z</time>
      </trkpt>
      <trkpt lat="45.1072" lon="4.75478">
        <ele>472</ele>
        <time>2021-02-22T19:23:04Z</time>
      </trkpt>
      <trkpt lat="45.10775" lon="4.75989">
        <ele>461</ele>
        <time>2021-02-22T19:27:56Z</time>
      </trkpt>
      <trkpt lat="45.10713" lon="4.76024">
        <ele>461</ele>
        <time>2021-02-22T19:28:49Z</time>
      </trkpt>
      <trkpt lat="45.10679" lon="4.76058">
        <ele>461</ele>
        <time>2021-02-22T19:29:22Z</time>
      </trkpt>
      <trkpt lat="45.10625" lon="4.76242">
        <ele>458</ele>
        <time>2021-02-22T19:31:15Z</time>
      </trkpt>
      <trkpt lat="45.1054" lon="4.76387">
        <ele>455</ele>
        <time>2021-02-22T19:33:02Z</time>
      </trkpt>
      <trkpt lat="45.10639" lon="4.76366">
        <ele>451</ele>
        <time>2021-02-22T19:34:22Z</time>
      </trkpt>
      <trkpt lat="45.10726" lon="4.76426">
        <ele>451</ele>
        <time>2021-02-22T19:35:39Z</time>
      </trkpt>
      <trkpt lat="45.10796" lon="4.76427">
        <ele>456</ele>
        <time>2021-02-22T19:36:35Z</time>
      </trkpt>
      <trkpt lat="45.10849" lon="4.76442">
        <ele>457</ele>
        <time>2021-02-22T19:37:19Z</time>
      </trkpt>
      <trkpt lat="45.10875" lon="4.76492">
        <ele>453</ele>
        <time>2021-02-22T19:37:54Z</time>
      </trkpt>
      <trkpt lat="45.10921" lon="4.76518">
        <ele>451</ele>
        <time>2021-02-22T19:38:33Z</time>
      </trkpt>
      <trkpt lat="45.10965" lon="4.76674">
        <ele>445</ele>
        <time>2021-02-22T19:40:08Z</time>
      </trkpt>
      <trkpt lat="45.11022" lon="4.76774">
        <ele>442</ele>
        <time>2021-02-22T19:41:21Z</time>
      </trkpt>
      <trkpt lat="45.10965" lon="4.7706">
        <ele>449</ele>
        <time>2021-02-22T19:44:09Z</time>
      </trkpt>
      <trkpt lat="45.10958" lon="4.77175">
        <ele>447</ele>
        <time>2021-02-22T19:45:14Z</time>
      </trkpt>
      <trkpt lat="45.10858" lon="4.77201">
        <ele>446</ele>
        <time>2021-02-22T19:46:35Z</time>
      </trkpt>
      <trkpt lat="45.10853" lon="4.77388">
        <ele>445</ele>
        <time>2021-02-22T19:48:21Z</time>
      </trkpt>
      <trkpt lat="45.1085" lon="4.77515">
        <ele>435</ele>
        <time>2021-02-22T19:49:33Z</time>
      </trkpt>
      <trkpt lat="45.10976" lon="4.77437">
        <ele>438</ele>
        <time>2021-02-22T19:51:23Z</time>
      </trkpt>
      <trkpt lat="45.11113" lon="4.77414">
        <ele>434</ele>
        <time>2021-02-22T19:53:14Z</time>
      </trkpt>
      <trkpt lat="45.11251" lon="4.77436">
        <ele>426</ele>
        <time>2021-02-22T19:55:05Z</time>
      </trkpt>
      <trkpt lat="45.11262" lon="4.77524">
        <ele>419</ele>
        <time>2021-02-22T19:55:55Z</time>
      </trkpt>
      <trkpt lat="45.11195" lon="4.77658">
        <ele>416</ele>
        <time>2021-02-22T19:57:28Z</time>
      </trkpt>
      <trkpt lat="45.11166" lon="4.77797">
        <ele>428</ele>
        <time>2021-02-22T19:58:50Z</time>
      </trkpt>
      <trkpt lat="45.11157" lon="4.77875">
        <ele>430</ele>
        <time>2021-02-22T19:59:35Z</time>
      </trkpt>
      <trkpt lat="45.11122" lon="4.77876">
        <ele>430</ele>
        <time>2021-02-22T20:00:03Z</time>
      </trkpt>
      <trkpt lat="45.11107" lon="4.77895">
        <ele>430</ele>
        <time>2021-02-22T20:00:19Z</time>
      </trkpt>
      <trkpt lat="45.11113" lon="4.77972">
        <ele>427</ele>
        <time>2021-02-22T20:01:02Z</time>
      </trkpt>
      <trkpt lat="45.11161" lon="4.78068">
        <ele>422</ele>
        <time>2021-02-22T20:02:09Z</time>
      </trkpt>
      <trkpt lat="45.11218" lon="4.78184">
        <ele>415</ele>
        <time>2021-02-22T20:03:29Z</time>
      </trkpt>
      <trkpt lat="45.1132" lon="4.78181">
        <ele>411</ele>
        <time>2021-02-22T20:04:51Z</time>
      </trkpt>
      <trkpt lat="45.11372" lon="4.78313">
        <ele>400</ele>
        <time>2021-02-22T20:06:16Z</time>
      </trkpt>
      <trkpt lat="45.11402" lon="4.78334">
        <ele>394</ele>
        <time>2021-02-22T20:06:43Z</time>
      </trkpt>
      <trkpt lat="45.11431" lon="4.7832">
        <ele>389</ele>
        <time>2021-02-22T20:07:07Z</time>
      </trkpt>
      <trkpt lat="45.11474" lon="4.78357">
        <ele>379</ele>
        <time>2021-02-22T20:07:48Z</time>
      </trkpt>
      <trkpt lat="45.11492" lon="4.78407">
        <ele>375</ele>
        <time>2021-02-22T20:08:19Z</time>
      </trkpt>
      <trkpt lat="45.1156" lon="4.78389">
        <ele>357</ele>
        <time>2021-02-22T20:09:15Z</time>
      </trkpt>
      <trkpt lat="45.11529" lon="4.78295">
        <ele>363</ele>
        <time>2021-02-22T20:10:13Z</time>
      </trkpt>
      <trkpt lat="45.11533" lon="4.78236">
        <ele>363</ele>
        <time>2021-02-22T20:10:47Z</time>
      </trkpt>
      <trkpt lat="45.11574" lon="4.78234">
        <ele>349</ele>
        <time>2021-02-22T20:11:20Z</time>
      </trkpt>
      <trkpt lat="45.11585" lon="4.78176">
        <ele>351</ele>
        <time>2021-02-22T20:11:54Z</time>
      </trkpt>
      <trkpt lat="45.11626" lon="4.78024">
        <ele>326</ele>
        <time>2021-02-22T20:13:25Z</time>
      </trkpt>
      <trkpt lat="45.1162" lon="4.77934">
        <ele>328</ele>
        <time>2021-02-22T20:14:17Z</time>
      </trkpt>
      <trkpt lat="45.11649" lon="4.77904">
        <ele>323</ele>
        <time>2021-02-22T20:14:45Z</time>
      </trkpt>
      <trkpt lat="45.11682" lon="4.77945">
        <ele>311</ele>
        <time>2021-02-22T20:15:20Z</time>
      </trkpt>
      <trkpt lat="45.11733" lon="4.78065">
        <ele>291</ele>
        <time>2021-02-22T20:16:40Z</time>
      </trkpt>
      <trkpt lat="45.1176" lon="4.78165">
        <ele>280</ele>
        <time>2021-02-22T20:17:40Z</time>
      </trkpt>
      <trkpt lat="45.11746" lon="4.78066">
        <ele>289</ele>
        <time>2021-02-22T20:18:37Z</time>
      </trkpt>
      <trkpt lat="45.11751" lon="4.78019">
        <ele>293</ele>
        <time>2021-02-22T20:19:04Z</time>
      </trkpt>
      <trkpt lat="45.1177" lon="4.77861">
        <ele>326</ele>
        <time>2021-02-22T20:20:35Z</time>
      </trkpt>
      <trkpt lat="45.11815" lon="4.77832">
        <ele>317</ele>
        <time>2021-02-22T20:21:14Z</time>
      </trkpt>
      <trkpt lat="45.11868" lon="4.77699">
        <ele>324</ele>
        <time>2021-02-22T20:22:40Z</time>
      </trkpt>
      <trkpt lat="45.11902" lon="4.77575">
        <ele>318</ele>
        <time>2021-02-22T20:23:56Z</time>
      </trkpt>
      <trkpt lat="45.12023" lon="4.77568">
        <ele>341</ele>
        <time>2021-02-22T20:25:33Z</time>
      </trkpt>
      <trkpt lat="45.12041" lon="4.77542">
        <ele>344</ele>
        <time>2021-02-22T20:25:53Z</time>
      </trkpt>
      <trkpt lat="45.1208" lon="4.77561">
        <ele>350</ele>
        <time>2021-02-22T20:26:26Z</time>
      </trkpt>
      <trkpt lat="45.12071" lon="4.77525">
        <ele>350</ele>
        <time>2021-02-22T20:26:48Z</time>
      </trkpt>
      <trkpt lat="45.12143" lon="4.77533">
        <ele>363</ele>
        <time>2021-02-22T20:27:46Z</time>
      </trkpt>
      <trkpt lat="45.12184" lon="4.77509">
        <ele>373</ele>
        <time>2021-02-22T20:28:21Z</time>
      </trkpt>
      <trkpt lat="45.12188" lon="4.77551">
        <ele>372</ele>
        <time>2021-02-22T20:28:45Z</time>
      </trkpt>
      <trkpt lat="45.12209" lon="4.77605">
        <ele>376</ele>
        <time>2021-02-22T20:29:20Z</time>
      </trkpt>
      <trkpt lat="45.12245" lon="4.77533">
        <ele>386</ele>
        <time>2021-02-22T20:30:10Z</time>
      </trkpt>
      <trkpt lat="45.12316" lon="4.77435">
        <ele>396</ele>
        <time>2021-02-22T20:31:29Z</time>
      </trkpt>
      <trkpt lat="45.12385" lon="4.77295">
        <ele>404</ele>
        <time>2021-02-22T20:33:06Z</time>
      </trkpt>
      <trkpt lat="45.12436" lon="4.77143">
        <ele>411</ele>
        <time>2021-02-22T20:34:41Z</time>
      </trkpt>
      <trkpt lat="45.12438" lon="4.769">
        <ele>422</ele>
        <time>2021-02-22T20:36:58Z</time>
      </trkpt>
      <trkpt lat="45.12472" lon="4.76782">
        <ele>423</ele>
        <time>2021-02-22T20:38:10Z</time>
      </trkpt>
      <trkpt lat="45.12463" lon="4.76701">
        <ele>428</ele>
        <time>2021-02-22T20:38:56Z</time>
      </trkpt>
      <trkpt lat="45.12588" lon="4.76817">
        <ele>420</ele>
        <time>2021-02-22T20:40:56Z</time>
      </trkpt>
      <trkpt lat="45.12705" lon="4.76703">
        <ele>426</ele>
        <time>2021-02-22T20:42:50Z</time>
      </trkpt>
      <trkpt lat="45.12753" lon="4.76618">
        <ele>428</ele>
        <time>2021-02-22T20:43:51Z</time>
      </trkpt>
      <trkpt lat="45.12841" lon="4.76627">
        <ele>428</ele>
        <time>2021-02-22T20:45:02Z</time>
      </trkpt>
      <trkpt lat="45.12996" lon="4.76571">
        <ele>425</ele>
        <time>2021-02-22T20:47:10Z</time>
      </trkpt>
      <trkpt lat="45.13001" lon="4.7654">
        <ele>427</ele>
        <time>2021-02-22T20:47:28Z</time>
      </trkpt>
      <trkpt lat="45.1308" lon="4.76798">
        <ele>419</ele>
        <time>2021-02-22T20:50:07Z</time>
      </trkpt>
      <trkpt lat="45.13186" lon="4.76914">
        <ele>419</ele>
        <time>2021-02-22T20:51:54Z</time>
      </trkpt>
      <trkpt lat="45.13285" lon="4.76746">
        <ele>406</ele>
        <time>2021-02-22T20:53:57Z</time>
      </trkpt>
      <trkpt lat="45.13388" lon="4.76598">
        <ele>402</ele>
        <time>2021-02-22T20:55:55Z</time>
      </trkpt>
      <trkpt lat="45.13446" lon="4.76473">
        <ele>407</ele>
        <time>2021-02-22T20:57:19Z</time>
      </trkpt>
      <trkpt lat="45.13473" lon="4.76359">
        <ele>410</ele>
        <time>2021-02-22T20:58:27Z</time>
      </trkpt>
      <trkpt lat="45.13495" lon="4.76294">
        <ele>411</ele>
        <time>2021-02-22T20:59:08Z</time>
      </trkpt>
      <trkpt lat="45.13598" lon="4.76139">
        <ele>414</ele>
        <time>2021-02-22T21:01:08Z</time>
      </trkpt>
      <trkpt lat="45.1353" lon="4.76044">
        <ele>421</ele>
        <time>2021-02-22T21:02:25Z</time>
      </trkpt>
      <trkpt lat="45.13434" lon="4.76011">
        <ele>429</ele>
        <time>2021-02-22T21:03:44Z</time>
      </trkpt>
      <trkpt lat="45.13338" lon="4.76001">
        <ele>432</ele>
        <time>2021-02-22T21:05:01Z</time>
      </trkpt>
      <trkpt lat="45.13243" lon="4.75988">
        <ele>435</ele>
        <time>2021-02-22T21:06:17Z</time>
      </trkpt>
      <trkpt lat="45.13162" lon="4.75886">
        <ele>442</ele>
        <time>2021-02-22T21:07:44Z</time>
      </trkpt>
      <trkpt lat="45.13065" lon="4.7584">
        <ele>444</ele>
        <time>2021-02-22T21:09:06Z</time>
      </trkpt>
      <trkpt lat="45.12953" lon="4.75817">
        <ele>444</ele>
        <time>2021-02-22T21:10:37Z</time>
      </trkpt>
      <trkpt lat="45.129" lon="4.75808">
        <ele>444</ele>
        <time>2021-02-22T21:11:19Z</time>
      </trkpt>
      <trkpt lat="45.12884" lon="4.75756">
        <ele>444</ele>
        <time>2021-02-22T21:11:51Z</time>
      </trkpt>
      <trkpt lat="45.12882" lon="4.75642">
        <ele>444</ele>
        <time>2021-02-22T21:12:56Z</time>
      </trkpt>
      <trkpt lat="45.12899" lon="4.756">
        <ele>445</ele>
        <time>2021-02-22T21:13:23Z</time>
      </trkpt>
      <trkpt lat="45.12936" lon="4.75571">
        <ele>444</ele>
        <time>2021-02-22T21:13:57Z</time>
      </trkpt>
      <trkpt lat="45.12959" lon="4.75502">
        <ele>447</ele>
        <time>2021-02-22T21:14:40Z</time>
      </trkpt>
      <trkpt lat="45.12962" lon="4.75404">
        <ele>450</ele>
        <time>2021-02-22T21:15:36Z</time>
      </trkpt>
      <trkpt lat="45.13102" lon="4.75265">
        <ele>448</ele>
        <time>2021-02-22T21:17:52Z</time>
      </trkpt>
      <trkpt lat="45.13134" lon="4.75192">
        <ele>448</ele>
        <time>2021-02-22T21:18:41Z</time>
      </trkpt>
      <trkpt lat="45.13181" lon="4.75114">
        <ele>447</ele>
        <time>2021-02-22T21:19:39Z</time>
      </trkpt>
      <trkpt lat="45.13234" lon="4.74994">
        <ele>443</ele>
        <time>2021-02-22T21:20:59Z</time>
      </trkpt>
      <trkpt lat="45.13302" lon="4.7486">
        <ele>437</ele>
        <time>2021-02-22T21:22:32Z</time>
      </trkpt>
      <trkpt lat="45.13344" lon="4.74777">
        <ele>432</ele>
        <time>2021-02-22T21:23:30Z</time>
      </trkpt>
      <trkpt lat="45.13345" lon="4.74688">
        <ele>425</ele>
        <time>2021-02-22T21:24:20Z</time>
      </trkpt>
      <trkpt lat="45.13369" lon="4.74625">
        <ele>418</ele>
        <time>2021-02-22T21:25:01Z</time>
      </trkpt>
      <trkpt lat="45.13405" lon="4.74623">
        <ele>414</ele>
        <time>2021-02-22T21:25:29Z</time>
      </trkpt>
      <trkpt lat="45.13435" lon="4.74661">
        <ele>413</ele>
        <time>2021-02-22T21:26:02Z</time>
      </trkpt>
      <trkpt lat="45.13432" lon="4.74596">
        <ele>408</ele>
        <time>2021-02-22T21:26:38Z</time>
      </trkpt>
      <trkpt lat="45.13423" lon="4.7456">
        <ele>407</ele>
        <time>2021-02-22T21:27:00Z</time>
      </trkpt>
      <trkpt lat="45.13448" lon="4.74499">
        <ele>403</ele>
        <time>2021-02-22T21:27:40Z</time>
      </trkpt>
      <trkpt lat="45.13497" lon="4.74568">
        <ele>401</ele>
        <time>2021-02-22T21:28:35Z</time>
      </trkpt>
      <trkpt lat="45.13553" lon="4.74548">
        <ele>407</ele>
        <time>2021-02-22T21:29:21Z</time>
      </trkpt>
      <trkpt lat="45.13554" lon="4.74493">
        <ele>411</ele>
        <time>2021-02-22T21:29:52Z</time>
      </trkpt>
      <trkpt lat="45.13524" lon="4.74421">
        <ele>414</ele>
        <time>2021-02-22T21:30:40Z</time>
      </trkpt>
      <trkpt lat="45.13556" lon="4.74351">
        <ele>421</ele>
        <time>2021-02-22T21:31:27Z</time>
      </trkpt>
      <trkpt lat="45.13598" lon="4.74232">
        <ele>420</ele>
        <time>2021-02-22T21:32:42Z</time>
      </trkpt>
      <trkpt lat="45.13782" lon="4.74197">
        <ele>411</ele>
        <time>2021-02-22T21:35:11Z</time>
      </trkpt>
      <trkpt lat="45.139" lon="4.74313">
        <ele>414</ele>
        <time>2021-02-22T21:37:06Z</time>
      </trkpt>
      <trkpt lat="45.13929" lon="4.7432">
        <ele>415</ele>
        <time>2021-02-22T21:37:29Z</time>
      </trkpt>
      <trkpt lat="45.13918" lon="4.74241">
        <ele>414</ele>
        <time>2021-02-22T21:38:15Z</time>
      </trkpt>
      <trkpt lat="45.13864" lon="4.741">
        <ele>414</ele>
        <time>2021-02-22T21:39:45Z</time>
      </trkpt>
      <trkpt lat="45.13791" lon="4.73902">
        <ele>423</ele>
        <time>2021-02-22T21:41:51Z</time>
      </trkpt>
      <trkpt lat="45.13837" lon="4.7381">
        <ele>426</ele>
        <time>2021-02-22T21:42:55Z</time>
      </trkpt>
      <trkpt lat="45.13885" lon="4.73788">
        <ele>425</ele>
        <time>2021-02-22T21:43:35Z</time>
      </trkpt>
      <trkpt lat="45.1391" lon="4.73735">
        <ele>427</ele>
        <time>2021-02-22T21:44:11Z</time>
      </trkpt>
      <trkpt lat="45.13935" lon="4.73816">
        <ele>422</ele>
        <time>2021-02-22T21:45:01Z</time>
      </trkpt>
      <trkpt lat="45.13969" lon="4.73852">
        <ele>420</ele>
        <time>2021-02-22T21:45:35Z</time>
      </trkpt>
      <trkpt lat="45.1411" lon="4.73785">
        <ele>411</ele>
        <time>2021-02-22T21:47:34Z</time>
      </trkpt>
      <trkpt lat="45.14151" lon="4.73716">
        <ele>409</ele>
        <time>2021-02-22T21:48:25Z</time>
      </trkpt>
      <trkpt lat="45.14221" lon="4.7373">
        <ele>407</ele>
        <time>2021-02-22T21:49:22Z</time>
      </trkpt>
      <trkpt lat="45.14257" lon="4.73754">
        <ele>405</ele>
        <time>2021-02-22T21:49:54Z</time>
      </trkpt>
      <trkpt lat="45.14311" lon="4.73485">
        <ele>406</ele>
        <time>2021-02-22T21:52:32Z</time>
      </trkpt>
      <trkpt lat="45.1421" lon="4.73518">
        <ele>420</ele>
        <time>2021-02-22T21:53:55Z</time>
      </trkpt>
      <trkpt lat="45.14087" lon="4.73402">
        <ele>428</ele>
        <time>2021-02-22T21:55:53Z</time>
      </trkpt>
      <trkpt lat="45.13943" lon="4.73327">
        <ele>430</ele>
        <time>2021-02-22T21:57:56Z</time>
      </trkpt>
      <trkpt lat="45.13877" lon="4.73625">
        <ele>431</ele>
        <time>2021-02-22T22:00:52Z</time>
      </trkpt>
      <trkpt lat="45.13774" lon="4.73546">
        <ele>435</ele>
        <time>2021-02-22T22:02:26Z</time>
      </trkpt>
      <trkpt lat="45.13657" lon="4.73513">
        <ele>442</ele>
        <time>2021-02-22T22:04:02Z</time>
      </trkpt>
      <trkpt lat="45.13534" lon="4.73486">
        <ele>449</ele>
        <time>2021-02-22T22:05:41Z</time>
      </trkpt>
      <trkpt lat="45.13416" lon="4.73386">
        <ele>457</ele>
        <time>2021-02-22T22:07:31Z</time>
      </trkpt>
      <trkpt lat="45.13511" lon="4.7338">
        <ele>452</ele>
        <time>2021-02-22T22:08:47Z</time>
      </trkpt>
      <trkpt lat="45.13647" lon="4.73295">
        <ele>440</ele>
        <time>2021-02-22T22:10:46Z</time>
      </trkpt>
      <trkpt lat="45.13692" lon="4.7326">
        <ele>436</ele>
        <time>2021-02-22T22:11:28Z</time>
      </trkpt>
      <trkpt lat="45.13702" lon="4.73311">
        <ele>436</ele>
        <time>2021-02-22T22:11:57Z</time>
      </trkpt>
    </trkseg>
  </trk>
</gpx>